Scroll down
FLIGHT INFORMATION
PMDG Flight Operations

PFO304

At Arrival Gate

KMSP
 CYYZ
DATE: 2020-03-05
GATE:  -
GATE DEPARTURE: 11:56
TAKEOFF: 12:10
DATE: 2020-03-05
GATE:  -
LANDING: 13:42
GATE ARRIVAL: 13:51
FLIGHT DATA
Crew: 
Speed: 
459 kts
Altitude: 
33,004 ft
Stage Length: 
588.0 nm
Block Time: 
1.9 hrs
Flight Time: 
1.5 hrs
Fuel Used: 
10,547 lb
Cleared Route: 
TRACK DATA
50,000 ft 1,000 kts
AIRCRAFT INFO AND CUMULATIVE STATS
Aircraft Type: 
B739ERSSW
Registration: 
SELCAL: 
MSN/LN: 
0 / 1
Total Flights: 
10
Total Block Time: 
38.2 hrs
Total Flight Time: 
36.7 hrs
Total Fuel Time: 
169,885 lb
DATALINK LOG | Newest first | Current as of: 2020-12-03 00:30:24
LABEL SEQUENCE CONTENT Dn/Up
QD512613:51 6.1▼ Dn
QC422213:42▼ Dn
2U1903CYYZ 051300Z 17010KT 15SM SKC M00/M06 A3013 RMK SLP211▲ Up
2S1737CYYZ▼ Dn
GA5843ADVANCED GATE ASSIGNMENTS NOT YET AVAILABLE AT THIS AIRPORT▲ Up
GR5732CYYZ --:-- HI-VAL NO DIPL/VIP NO▼ Dn
2U2005CYYZ 051200Z 17006KT 15SM SKC M03/M07 A3012 RMK SLP208▲ Up
2S1858CYYZ▼ Dn
QB114812:10▼ Dn
QA574011:56 16.8▼ Dn
A34028CLEARED TO CYYZ VIA KMSP CYYZ PFO304 N739ES . SQUAWK 2501.▲ Up
B33812KMSP CYYZ PFO304 N739ES ▼ Dn
2U2212KMSP 051053Z 28013KT 10SM BKN085 06/M01 A2973 RMK AO2 PK WND 27028/1041 SLP072 T00561006▲ Up
2S2015KMSP▼ Dn
Q01707[LINK ACK]▲ Up
Q01516[LINK TEST]▼ Dn


AIRCRAFT HISTORY
FLIGHT DATE FLIGHT NO. ORIGIN DESTINATION CLEARED ROUTE BLOCK TIME FLIGHT TIME FUEL USED PILOT
2020-10-22PFO0001SKBO SCEL SKBO POVSO ROLUS IQT OSORA TEMOR LITUP ILNAM ETEBA LOMOL TOMIX OPKUL OGMAS EVLAR ISLOD ARI PUGOT IQQ REBOL FAG VADIX NENAT REBEP MORMI OGROS NIRNU ISGUD SIMOK SCEL5.1 hrs5 hrs24,977 lbAlex K.
2020-10-22PFO0001MMUN SKBO MMUN TAKUX OMIRO BONOS PELRA SPP SEKMA PML ARORO VASIL ABL SKBO3.2 hrs3 hrs15,240 lbAlex K.
2020-10-21PFO0001MZBZ MMUN 0.9 hrs0.7 hrs5,540 lbAlex K.
2020-10-21PFO0001TNCM MZBZ 3.5 hrs3.4 hrs20,057 lbAlex K.
2020-10-21PFO0001KBFI TNCM 12 hrs11.8 hrs34,064 lbAlex K.
2020-10-20PFO0001CYQD KBFI CYQD QD PIKLA KANEE LOSTT KBFI2.5 hrs2.4 hrs11,850 lbAlex K.
2020-10-17PFO1CYYT CYQD CYYT MUSAK BOBBS YFM YPO YNE REFEX KANEE DASBI LOSTT KBFI4.5 hrs4.3 hrs23,009 lbAlex K.
2020-08-07PFO1KOSH CYYT KOSH OSH GRB ASP MIILS YGR MIVAD PESDO PIGTA GAURA DUTOV GAURA RW293.6 hrs3.3 hrs16,602 lbSTEFAN DORDEVIC
2020-07-20PFO720CYYZ KOSH CYYZ TETAD URSAL BESID NOSIK ZOHAN OSH CFBSM RW361.4 hrs1.2 hrs7,998 lbKyle Weber
2020-03-05PFO304KMSP CYYZ 1.9 hrs1.5 hrs10,547 lbBig Swede